Time;durP1;ratioP1;P1;durP2;ratioP2;P2;SDS_P1;SDS_P2;PMS_P1;PMS_P2;Temp;Humidity;BMP_temperature;BMP_pressure;BME280_temperature;BME280_humidity;BME280_pressure;Samples;Min_cycle;Max_cycle;Signal;HPM_P1;HPM_P2
2021/12/07 00:01:27;;;;;;;;;;;;;;;26.51;64.05;101234.66;5083703;27;70868;-33
2021/12/07 00:03:58;;;;;;;;;;;;;;;26.50;65.24;101238.34;5082235;27;65935;-32
2021/12/07 00:06:28;;;;;;;;;;;;;;;26.62;66.40;101242.28;5083315;27;70270;-33
2021/12/07 00:08:59;;;;;;;;;;;;;;;26.72;67.05;101252.81;5083409;27;65977;-32
2021/12/07 00:11:29;;;;;;;;;;;;;;;26.80;67.57;101252.72;5082393;27;70223;-32
2021/12/07 00:14:01;;;;;;;;;;;;;;;26.87;68.09;101261.72;5082878;27;66551;-34
2021/12/07 00:16:31;;;;;;;;;;;;;;;26.94;68.41;101268.06;5083457;27;70266;-34
2021/12/07 00:19:01;;;;;;;;;;;;;;;26.94;67.71;101265.34;5081374;27;66756;-34
2021/12/07 00:21:32;;;;;;;;;;;;;;;27.00;68.05;101276.41;5082435;27;70144;-33
2021/12/07 00:24:02;;;;;;;;;;;;;;;27.04;68.40;101277.69;5082426;27;66255;-33
2021/12/07 00:26:40;;;;;;;;;;;;;;;27.04;66.68;101269.63;5080789;27;70301;-33
2021/12/07 00:29:11;;;;;;;;;;;;;;;27.06;66.34;101279.19;5080163;28;65551;-33
2021/12/07 00:31:50;;;;;;;;;;;;;;;27.09;65.84;101289.59;5081656;27;70059;-33
2021/12/07 00:34:59;;;;;;;;;;;;;;;27.11;65.69;101279.47;5074644;27;66126;-32
2021/12/07 00:37:14;;;;;;;;;;;;;;;27.14;65.55;101284.47;5080907;27;70298;-33
2021/12/07 00:39:43;;;;;;;;;;;;;;;27.17;65.19;101286.84;5082449;27;66401;-33
2021/12/07 00:42:13;;;;;;;;;;;;;;;27.19;65.06;101289.31;5080860;27;69342;-33
2021/12/07 00:44:43;;;;;;;;;;;;;;;27.22;64.99;101296.19;5065617;28;66740;-33
2021/12/07 00:47:14;;;;;;;;;;;;;;;27.24;65.14;101300.38;5079332;27;69760;-33
2021/12/07 00:49:45;;;;;;;;;;;;;;;27.26;64.88;101300.22;5079566;27;65672;-33
2021/12/07 00:52:15;;;;;;;;;;;;;;;27.28;64.80;101306.25;5077638;27;70340;-33
2021/12/07 00:54:45;;;;;;;;;;;;;;;27.29;64.78;101308.75;5079126;27;66693;-33
2021/12/07 00:57:15;;;;;;;;;;;;;;;27.30;64.48;101309.59;5078623;27;70237;-32
2021/12/07 00:59:46;;;;;;;;;;;;;;;27.32;64.66;101313.75;5078149;27;66442;-33
2021/12/07 01:02:16;;;;;;;;;;;;;;;27.33;64.54;101309.22;5077450;27;69153;-33
2021/12/07 01:04:54;;;;;;;;;;;;;;;27.35;64.33;101320.63;5081741;27;65873;-33
2021/12/07 01:27:07;;;;;;;;;;;;;;;27.47;64.01;101316.47;5076172;27;66227;-38
2021/12/07 01:29:39;;;;;;;;;;;;;;;27.49;63.83;101314.41;5076281;27;69792;-33
2021/12/07 01:32:25;;;;;;;;;;;;;;;27.50;63.93;101307.19;5077866;27;65969;-33
2021/12/07 02:00:00;;;;;;;;;;;;;;;27.65;63.41;101324.16;5078312;27;66105;-34
2021/12/07 02:02:42;;;;;;;;;;;;;;;27.69;63.66;101324.59;5078260;27;69121;-33
2021/12/07 02:05:12;;;;;;;;;;;;;;;27.70;63.53;101315.50;5076372;27;66035;-34
2021/12/07 02:07:42;;;;;;;;;;;;;;;27.72;63.42;101316.13;5077526;27;69727;-34
2021/12/07 02:10:18;;;;;;;;;;;;;;;27.74;63.45;101316.78;5075233;27;66292;-33
2021/12/07 02:12:54;;;;;;;;;;;;;;;27.75;63.37;101318.47;5076834;28;69543;-33
2021/12/07 02:15:26;;;;;;;;;;;;;;;27.77;63.43;101321.81;5078112;27;66415;-33
2021/12/07 02:17:56;;;;;;;;;;;;;;;27.78;63.56;101318.09;5063601;27;70056;-34
2021/12/07 02:20:30;;;;;;;;;;;;;;;27.81;63.34;101317.75;5077635;27;66590;-33
2021/12/07 02:23:00;;;;;;;;;;;;;;;27.82;63.03;101319.41;5092242;27;69943;-34
2021/12/07 02:25:32;;;;;;;;;;;;;;;27.83;63.46;101330.03;5077750;27;66775;-33
2021/12/07 02:28:06;;;;;;;;;;;;;;;27.85;63.11;101324.44;5076833;27;70311;-33
2021/12/07 02:30:36;;;;;;;;;;;;;;;27.85;63.45;101321.72;5077077;27;65394;-34
2021/12/07 02:33:06;;;;;;;;;;;;;;;27.89;63.12;101338.34;5078727;27;69314;-32
2021/12/07 02:35:37;;;;;;;;;;;;;;;27.91;63.26;101322.84;5060524;28;65928;-33
2021/12/07 02:38:08;;;;;;;;;;;;;;;27.93;63.11;101331.56;5074774;27;70050;-34
2021/12/07 02:40:39;;;;;;;;;;;;;;;27.89;63.15;101320.34;5077949;27;66079;-34
2021/12/07 02:43:11;;;;;;;;;;;;;;;27.95;63.10;101327.66;5076500;27;69016;-34
2021/12/07 02:45:44;;;;;;;;;;;;;;;27.98;63.09;101329.97;5075749;27;65422;-33
2021/12/07 02:48:14;;;;;;;;;;;;;;;27.98;62.96;101319.19;5076562;27;70242;-33
2021/12/07 02:50:50;;;;;;;;;;;;;;;27.98;62.77;101312.97;5076607;27;65868;-33
2021/12/07 02:53:26;;;;;;;;;;;;;;;28.03;62.72;101321.34;5075707;27;69200;-34
2021/12/07 02:55:59;;;;;;;;;;;;;;;28.03;62.76;101311.38;5076477;27;65990;-33
2021/12/07 02:58:35;;;;;;;;;;;;;;;28.07;63.06;101307.25;5074716;27;69778;-33
2021/12/07 03:01:13;;;;;;;;;;;;;;;28.03;62.59;101300.59;5076175;27;65389;-33
2021/12/07 03:06:45;;;;;;;;;;;;;;;28.13;62.55;101307.53;5076091;27;65926;-34
2021/12/07 03:26:11;;;;;;;;;;;;;;;28.15;62.47;101281.19;5073629;27;69972;-33
2021/12/07 03:28:45;;;;;;;;;;;;;;;28.31;62.31;101299.00;5075488;27;66543;-34
2021/12/07 03:31:19;;;;;;;;;;;;;;;28.33;62.20;101286.13;5074033;27;70089;-32
2021/12/07 03:33:53;;;;;;;;;;;;;;;28.35;62.35;101282.22;5075385;27;66406;-33
2021/12/07 03:36:26;;;;;;;;;;;;;;;28.37;62.04;101282.88;5074623;27;70167;-32
2021/12/07 03:38:59;;;;;;;;;;;;;;;28.40;62.01;101284.34;5057062;28;65417;-32
2021/12/07 03:41:29;;;;;;;;;;;;;;;28.41;62.00;101281.44;5073950;27;70493;-33
2021/12/07 03:44:00;;;;;;;;;;;;;;;28.43;62.23;101274.03;5076088;27;66190;-33
2021/12/07 03:46:31;;;;;;;;;;;;;;;28.45;61.91;101271.97;5073453;27;71718;-34
2021/12/07 03:49:01;;;;;;;;;;;;;;;28.47;61.81;101269.91;5076730;27;65915;-33
2021/12/07 03:51:31;;;;;;;;;;;;;;;28.48;61.85;101268.88;5075395;27;70276;-33
2021/12/07 03:54:02;;;;;;;;;;;;;;;28.51;61.85;101265.78;5075645;28;66596;-33
2021/12/07 03:56:32;;;;;;;;;;;;;;;28.54;61.60;101253.78;5075425;27;70032;-33
2021/12/07 03:59:03;;;;;;;;;;;;;;;28.56;61.58;101245.50;5076260;27;66130;-34
2021/12/07 04:01:34;;;;;;;;;;;;;;;28.59;61.84;101243.22;5072406;27;70679;-34
2021/12/07 04:04:05;;;;;;;;;;;;;;;28.61;61.49;101243.88;5075845;27;67704;-34
2021/12/07 04:06:35;;;;;;;;;;;;;;;28.63;61.65;101235.56;5076188;27;70494;-34
2021/12/07 04:09:06;;;;;;;;;;;;;;;28.66;61.45;101235.16;5074456;27;65996;-33
2021/12/07 04:11:37;;;;;;;;;;;;;;;28.68;61.44;101227.72;5076149;27;69850;-36
2021/12/07 04:14:07;;;;;;;;;;;;;;;28.69;61.79;101224.78;5079165;27;66583;-34
2021/12/07 04:16:37;;;;;;;;;;;;;;;28.72;61.49;101223.56;5077404;27;70524;-34
2021/12/07 04:19:08;;;;;;;;;;;;;;;28.74;61.47;101216.94;5079189;27;66555;-33
2021/12/07 04:21:38;;;;;;;;;;;;;;;28.77;61.56;101210.31;5078145;27;70354;-35
2021/12/07 04:24:09;;;;;;;;;;;;;;;28.80;61.13;101209.91;5078139;27;66724;-34
2021/12/07 04:26:40;;;;;;;;;;;;;;;28.82;61.38;101202.47;5080079;27;70831;-34
2021/12/07 04:29:10;;;;;;;;;;;;;;;28.83;60.96;101198.72;5081343;27;64829;-34
2021/12/07 04:31:40;;;;;;;;;;;;;;;28.87;61.04;101200.00;5079322;27;70790;-34
2021/12/07 04:34:10;;;;;;;;;;;;;;;28.89;61.22;101192.53;5080791;27;66600;-34
2021/12/07 04:36:40;;;;;;;;;;;;;;;28.90;61.02;101183.41;5066485;27;70168;-34
2021/12/07 04:39:10;;;;;;;;;;;;;;;28.94;61.15;101178.44;5079966;27;65910;-35
2021/12/07 04:41:43;;;;;;;;;;;;;;;28.96;60.57;101177.19;5079524;27;70095;-33
2021/12/07 04:44:13;;;;;;;;;;;;;;;28.98;60.54;101157.28;5079787;27;66764;-35
2021/12/07 04:46:52;;;;;;;;;;;;;;;29.01;60.76;101157.69;5080269;27;70364;-34
2021/12/07 04:57:46;;;;;;;;;;;;;;;29.12;60.95;101146.34;5079366;27;69941;-34
2021/12/07 05:00:18;;;;;;;;;;;;;;;29.14;60.84;101130.78;5079230;27;66825;-33
2021/12/07 05:02:56;;;;;;;;;;;;;;;29.17;60.85;101137.66;5080076;27;69841;-33
2021/12/07 05:05:32;;;;;;;;;;;;;;;29.21;60.45;101136.19;5079331;27;65700;-33
2021/12/07 05:08:10;;;;;;;;;;;;;;;29.24;60.41;101129.56;5078437;27;69816;-34
2021/12/07 05:13:26;;;;;;;;;;;;;;;29.27;60.94;101113.75;5076200;27;70316;-33
2021/12/07 05:16:07;;;;;;;;;;;;;;;29.30;60.81;101107.13;5080416;27;67000;-34
2021/12/07 05:18:52;;;;;;;;;;;;;;;29.33;60.83;101102.13;5077654;27;69973;-34
2021/12/07 05:24:20;;;;;;;;;;;;;;;29.37;60.45;101091.75;5078842;27;69245;-33
2021/12/07 05:40:20;;;;;;;;;;;;;;;29.46;60.79;101065.38;5078722;27;70531;-32
2021/12/07 05:42:50;;;;;;;;;;;;;;;29.48;60.59;101068.72;5079310;27;67213;-33
2021/12/07 05:45:23;;;;;;;;;;;;;;;29.50;60.33;101063.91;5077478;27;69751;-34
2021/12/07 05:47:53;;;;;;;;;;;;;;;29.53;60.77;101052.69;5077459;27;66279;-33
2021/12/07 05:50:25;;;;;;;;;;;;;;;29.54;60.64;101038.97;5078474;27;69922;-33
2021/12/07 05:52:56;;;;;;;;;;;;;;;29.31;60.60;101000.69;5077174;27;65218;-33
2021/12/07 05:55:27;;;;;;;;;;;;;;;29.60;60.13;101037.31;5078434;27;69961;-33
2021/12/07 05:57:57;;;;;;;;;;;;;;;29.60;60.46;101023.78;5079428;27;67076;-33
2021/12/07 06:00:29;;;;;;;;;;;;;;;29.65;60.53;101018.63;5075571;27;70851;-35
2021/12/07 06:03:03;;;;;;;;;;;;;;;29.67;60.60;101013.84;5079594;27;66253;-34
2021/12/07 06:05:34;;;;;;;;;;;;;;;29.70;60.22;101008.03;5075937;27;69711;-34
2021/12/07 06:08:04;;;;;;;;;;;;;;;29.73;60.53;101004.91;5079253;27;66110;-34
2021/12/07 06:10:35;;;;;;;;;;;;;;;29.75;60.48;101008.19;5078081;27;69778;-34
2021/12/07 06:13:05;;;;;;;;;;;;;;;29.77;59.99;101000.72;5077510;27;65904;-34
2021/12/07 06:15:38;;;;;;;;;;;;;;;29.79;59.99;100992.41;5077953;27;69323;-34
2021/12/07 06:18:09;;;;;;;;;;;;;;;29.81;59.70;100996.56;5078809;27;66353;-34
2021/12/07 06:20:42;;;;;;;;;;;;;;;29.83;60.18;100996.34;5076216;27;68931;-34
2021/12/07 06:23:15;;;;;;;;;;;;;;;29.86;60.07;100992.38;5078477;27;66230;-34
2021/12/07 06:25:45;;;;;;;;;;;;;;;29.88;60.21;100987.59;5078333;27;70163;-33
2021/12/07 06:28:16;;;;;;;;;;;;;;;29.91;59.60;100989.88;5076144;27;67035;-34
2021/12/07 06:30:56;;;;;;;;;;;;;;;29.93;59.76;100987.81;5078672;27;69703;-33
2021/12/07 06:33:26;;;;;;;;;;;;;;;29.95;59.57;100972.19;5076129;27;66394;-33
2021/12/07 06:35:59;;;;;;;;;;;;;;;29.97;59.94;100978.22;5077759;27;70710;-34
2021/12/07 06:38:31;;;;;;;;;;;;;;;29.98;59.42;100971.78;5077576;27;65441;-32
2021/12/07 06:41:02;;;;;;;;;;;;;;;30.00;59.58;100978.63;5076447;27;69446;-32
2021/12/07 06:43:32;;;;;;;;;;;;;;;30.01;59.36;100974.88;5077719;27;65410;-33
2021/12/07 06:46:04;;;;;;;;;;;;;;;30.03;60.04;100971.94;5078196;27;69933;-34
2021/12/07 06:48:34;;;;;;;;;;;;;;;30.04;59.74;100969.03;5074968;27;66546;-33
2021/12/07 06:51:05;;;;;;;;;;;;;;;30.09;60.29;100970.28;5078562;27;70618;-34
2021/12/07 06:53:38;;;;;;;;;;;;;;;30.10;59.53;100964.66;5077574;27;65514;-33
2021/12/07 06:56:09;;;;;;;;;;;;;;;30.10;59.91;100953.84;5077858;27;69507;-33
2021/12/07 06:58:39;;;;;;;;;;;;;;;30.15;60.03;100956.75;5078275;28;66783;-33
2021/12/07 07:01:11;;;;;;;;;;;;;;;30.19;59.76;100957.97;5077655;27;69248;-33
2021/12/07 07:03:42;;;;;;;;;;;;;;;30.22;59.11;100960.25;5076835;27;66503;-32
2021/12/07 07:06:12;;;;;;;;;;;;;;;30.24;59.25;100950.06;5077124;27;69993;-33
2021/12/07 07:08:42;;;;;;;;;;;;;;;30.27;59.67;100951.50;5076772;27;65662;-33
2021/12/07 07:11:13;;;;;;;;;;;;;;;30.32;59.79;100956.28;5078848;27;69952;-32
2021/12/07 07:13:45;;;;;;;;;;;;;;;30.34;59.50;100949.63;5077460;27;66453;-34
2021/12/07 07:16:16;;;;;;;;;;;;;;;30.38;59.38;100952.72;5063075;27;69231;-32
2021/12/07 07:18:47;;;;;;;;;;;;;;;30.41;59.49;100941.47;5078448;27;65263;-34
2021/12/07 07:21:17;;;;;;;;;;;;;;;30.43;58.98;100950.19;5077649;27;69900;-33
2021/12/07 07:23:47;;;;;;;;;;;;;;;30.43;59.50;100940.19;5076526;27;66249;-33
2021/12/07 07:26:17;;;;;;;;;;;;;;;30.46;58.69;100944.34;5077763;27;69856;-34
2021/12/07 07:28:47;;;;;;;;;;;;;;;30.48;59.05;100943.09;5077870;27;66317;-33
2021/12/07 07:31:17;;;;;;;;;;;;;;;30.49;58.82;100938.50;5076646;27;69751;-34
2021/12/07 07:33:48;;;;;;;;;;;;;;;30.53;59.06;100939.72;5077929;27;65794;-33
2021/12/07 07:36:18;;;;;;;;;;;;;;;30.55;58.70;100934.09;5077356;27;70601;-32
2021/12/07 07:38:48;;;;;;;;;;;;;;;30.58;59.41;100936.38;5075608;27;66264;-33
2021/12/07 07:41:20;;;;;;;;;;;;;;;30.61;59.18;100931.34;5076980;27;70096;-34
2021/12/07 07:43:50;;;;;;;;;;;;;;;30.65;59.09;100924.47;5077827;27;65614;-34
2021/12/07 07:46:21;;;;;;;;;;;;;;;30.67;58.90;100925.09;5075052;27;70790;-34
2021/12/07 07:48:51;;;;;;;;;;;;;;;30.70;59.06;100935.47;5079051;27;66545;-36
2021/12/07 07:51:21;;;;;;;;;;;;;;;30.74;59.04;100925.03;5081490;27;70491;-33
2021/12/07 07:53:51;;;;;;;;;;;;;;;30.78;59.36;100923.53;5079721;27;67060;-34
2021/12/07 07:56:21;;;;;;;;;;;;;;;30.81;59.18;100919.59;5080401;27;69690;-33
2021/12/07 07:58:51;;;;;;;;;;;;;;;30.85;58.37;100926.25;5081045;27;66174;-34
2021/12/07 08:01:23;;;;;;;;;;;;;;;30.86;58.51;100915.19;5079747;27;70609;-33
2021/12/07 08:03:53;;;;;;;;;;;;;;;30.91;59.16;100917.22;5077706;27;65506;-33
2021/12/07 08:06:23;;;;;;;;;;;;;;;30.95;58.41;100915.72;5078277;27;70306;-34
2021/12/07 08:08:53;;;;;;;;;;;;;;;30.99;59.00;100916.16;5080374;27;66609;-34
2021/12/07 08:11:24;;;;;;;;;;;;;;;31.02;58.02;100904.88;5080058;27;70288;-32
2021/12/07 08:13:55;;;;;;;;;;;;;;;31.04;58.73;100900.88;5080163;27;65915;-33
2021/12/07 08:16:27;;;;;;;;;;;;;;;31.08;58.43;100910.22;5077548;27;70127;-34
2021/12/07 08:18:57;;;;;;;;;;;;;;;31.09;58.26;100900.19;5081010;27;66623;-33
2021/12/07 08:21:29;;;;;;;;;;;;;;;31.10;58.52;100913.53;5076746;27;69803;-34
2021/12/07 08:23:59;;;;;;;;;;;;;;;31.11;59.06;100914.38;5081215;27;65260;-33
2021/12/07 08:26:30;;;;;;;;;;;;;;;31.11;59.04;100906.25;5079993;27;71197;-33
2021/12/07 08:29:01;;;;;;;;;;;;;;;31.12;58.75;100911.44;5078138;27;65638;-33
2021/12/07 08:31:33;;;;;;;;;;;;;;;31.14;58.59;100903.91;5079996;27;69502;-33
2021/12/07 08:34:04;;;;;;;;;;;;;;;31.21;58.20;100897.63;5080284;27;66146;-33
2021/12/07 08:36:34;;;;;;;;;;;;;;;31.23;58.58;100900.91;5077783;27;69473;-33
2021/12/07 08:39:05;;;;;;;;;;;;;;;31.26;58.20;100903.19;5079969;27;66416;-33
2021/12/07 08:41:48;;;;;;;;;;;;;;;31.28;58.34;100903.78;5079234;27;70368;-33
2021/12/07 08:44:28;;;;;;;;;;;;;;;31.30;58.38;100901.69;5079370;27;67680;-33
2021/12/07 08:46:58;;;;;;;;;;;;;;;31.28;58.15;100904.63;5081548;27;69765;-34
2021/12/07 08:49:28;;;;;;;;;;;;;;;31.28;58.10;100899.19;5077620;27;66509;-34
2021/12/07 08:51:59;;;;;;;;;;;;;;;31.30;58.16;100913.38;5078689;27;70460;-34
2021/12/07 08:59:37;;;;;;;;;;;;;;;31.31;57.89;100904.16;5079903;27;66621;-33
2021/12/07 09:00:09;;;;;;;;;;;;;;;31.36;58.32;100907.06;5077908;27;66580;-33
2021/12/07 09:02:40;;;;;;;;;;;;;;;31.39;58.12;100905.81;5079185;27;69191;-34
2021/12/07 09:05:10;;;;;;;;;;;;;;;31.39;58.18;100905.81;5079670;27;66700;-34
2021/12/07 09:07:40;;;;;;;;;;;;;;;31.38;58.37;100904.16;5078304;27;69170;-33
2021/12/07 09:10:10;;;;;;;;;;;;;;;31.37;58.15;100907.91;5081790;27;65537;-34
2021/12/07 09:12:40;;;;;;;;;;;;;;;31.40;58.32;100907.47;5079262;27;69361;-33
2021/12/07 09:15:34;;;;;;;;;;;;;;;31.40;58.24;100912.91;5078483;27;65602;-33
2021/12/07 09:18:04;;;;;;;;;;;;;;;31.42;58.40;100910.78;5079575;27;70502;-34
2021/12/07 09:20:35;;;;;;;;;;;;;;;31.37;58.44;100913.31;5077811;27;66834;-34
2021/12/07 09:23:06;;;;;;;;;;;;;;;31.42;57.96;100920.78;5078931;27;69306;-34
2021/12/07 09:25:36;;;;;;;;;;;;;;;31.41;58.06;100924.56;5078206;27;65700;-33
2021/12/07 09:28:08;;;;;;;;;;;;;;;31.44;57.85;100924.13;5079381;27;70545;-33
2021/12/07 09:30:38;;;;;;;;;;;;;;;31.46;57.63;100916.59;5078720;27;67359;-32
2021/12/07 09:33:09;;;;;;;;;;;;;;;31.44;57.81;100916.81;5077769;27;70180;-33
2021/12/07 09:35:39;;;;;;;;;;;;;;;31.39;58.09;100911.22;5078788;27;66881;-34
2021/12/07 09:38:09;;;;;;;;;;;;;;;31.42;58.55;100921.63;5078201;27;69273;-33
2021/12/07 09:40:39;;;;;;;;;;;;;;;31.38;58.27;100915.00;5077122;27;66724;-34
2021/12/07 09:43:11;;;;;;;;;;;;;;;31.43;58.55;100922.47;5079088;27;69882;-33
2021/12/07 09:45:43;;;;;;;;;;;;;;;31.42;58.52;100927.03;5079232;27;65728;-33
2021/12/07 09:48:13;;;;;;;;;;;;;;;31.44;57.97;100927.66;5077638;27;70105;-34
2021/12/07 09:50:47;;;;;;;;;;;;;;;31.42;58.28;100932.47;5079107;27;66072;-33
2021/12/07 09:53:17;;;;;;;;;;;;;;;31.44;57.98;100935.78;5077243;27;69856;-34
2021/12/07 09:55:48;;;;;;;;;;;;;;;31.41;57.93;100935.41;5076950;27;66088;-34
2021/12/07 09:58:18;;;;;;;;;;;;;;;31.41;58.23;100940.84;5079187;27;69409;-33
2021/12/07 10:00:50;;;;;;;;;;;;;;;31.38;58.34;100940.22;5078739;27;66003;-33
2021/12/07 10:03:21;;;;;;;;;;;;;;;31.43;58.17;100950.41;5078028;27;70256;-33
2021/12/07 10:05:52;;;;;;;;;;;;;;;31.39;58.32;100962.72;5078596;27;65832;-33
2021/12/07 10:08:22;;;;;;;;;;;;;;;31.40;58.62;100958.97;5078692;27;71731;-33
2021/12/07 10:10:55;;;;;;;;;;;;;;;31.36;58.41;100961.28;5063441;27;66778;-32
2021/12/07 10:13:29;;;;;;;;;;;;;;;31.38;58.11;100964.63;5078474;27;69904;-32
2021/12/07 10:16:02;;;;;;;;;;;;;;;31.37;58.08;100970.25;5076931;27;66302;-33
2021/12/07 10:18:35;;;;;;;;;;;;;;;31.36;58.41;100971.31;5077398;27;70250;-32
2021/12/07 10:21:23;;;;;;;;;;;;;;;31.33;58.11;100971.72;5078394;27;66432;-34
2021/12/07 10:24:00;;;;;;;;;;;;;;;31.33;58.45;100966.31;5078985;27;63662;-34
2021/12/07 10:26:32;;;;;;;;;;;;;;;31.32;58.56;100975.50;5078215;27;66243;-33
2021/12/07 10:29:10;;;;;;;;;;;;;;;31.34;58.47;100984.22;5078660;27;70676;-35
2021/12/07 10:31:42;;;;;;;;;;;;;;;31.32;58.62;100978.19;5065054;27;65836;-33
2021/12/07 10:34:15;;;;;;;;;;;;;;;31.28;58.55;100983.22;5075655;27;70314;-33
2021/12/07 10:36:45;;;;;;;;;;;;;;;31.27;58.28;100975.31;5076858;27;66229;-32
2021/12/07 10:39:18;;;;;;;;;;;;;;;31.25;59.02;100985.53;5077990;27;70188;-32
2021/12/07 10:41:49;;;;;;;;;;;;;;;31.27;58.87;100983.44;5075601;27;67049;-33
2021/12/07 10:44:21;;;;;;;;;;;;;;;31.24;58.57;100989.31;5079655;27;70069;-32
2021/12/07 10:47:00;;;;;;;;;;;;;;;31.24;58.83;100992.03;5078156;27;66948;-34
2021/12/07 10:49:39;;;;;;;;;;;;;;;31.25;58.52;100997.22;5080277;27;70045;-33
2021/12/07 10:52:22;;;;;;;;;;;;;;;31.21;59.50;100997.88;5080495;27;66778;-34
2021/12/07 10:55:05;;;;;;;;;;;;;;;31.16;59.84;101002.06;5078317;27;69476;-35
2021/12/07 11:00:53;;;;;;;;;;;;;;;31.12;58.90;101008.13;5077323;27;69341;-35
2021/12/07 11:03:29;;;;;;;;;;;;;;;31.12;60.08;101008.13;5079577;27;66626;-34
2021/12/07 11:06:02;;;;;;;;;;;;;;;31.13;59.87;101005.22;5077628;27;69964;-35
2021/12/07 11:08:34;;;;;;;;;;;;;;;31.14;59.85;101000.63;5077858;27;65956;-35
2021/12/07 11:11:04;;;;;;;;;;;;;;;31.15;60.10;101007.72;5076507;27;69111;-34
2021/12/07 11:13:51;;;;;;;;;;;;;;;30.88;61.23;101012.47;5074793;27;65914;-33
2021/12/07 11:16:21;;;;;;;;;;;;;;;30.78;62.80;101012.91;5077321;27;70306;-34
2021/12/07 11:18:54;;;;;;;;;;;;;;;30.68;63.04;101024.22;5078713;27;65530;-34
2021/12/07 11:21:30;;;;;;;;;;;;;;;30.63;64.05;101026.72;5075171;27;69609;-35
2021/12/07 11:24:00;;;;;;;;;;;;;;;30.61;64.51;101023.41;5081709;27;65737;-33
2021/12/07 11:29:40;;;;;;;;;;;;;;;30.54;64.52;101033.44;5080826;27;66769;-34
2021/12/07 11:32:10;;;;;;;;;;;;;;;30.50;64.72;101026.78;5083354;27;70423;-33
2021/12/07 11:34:41;;;;;;;;;;;;;;;30.47;65.09;101035.34;5082977;27;66694;-34
2021/12/07 11:37:13;;;;;;;;;;;;;;;30.47;65.08;101032.63;5083043;27;70035;-34
2021/12/07 11:39:50;;;;;;;;;;;;;;;30.44;65.24;101033.06;5082223;27;65511;-33
2021/12/07 11:42:26;;;;;;;;;;;;;;;30.41;65.70;101030.78;5080559;27;70509;-35
2021/12/07 11:44:59;;;;;;;;;;;;;;;30.40;66.03;101037.25;5083019;27;66698;-36
2021/12/07 11:47:31;;;;;;;;;;;;;;;30.38;65.49;101028.50;5079715;27;69398;-33
2021/12/07 11:50:21;;;;;;;;;;;;;;;30.35;65.86;101048.69;5075414;27;65445;-33
2021/12/07 11:53:05;;;;;;;;;;;;;;;30.36;65.83;101052.22;5040248;28;69081;-33
2021/12/07 11:55:37;;;;;;;;;;;;;;;30.36;65.66;101063.06;5078424;27;66485;-34
2021/12/07 11:58:10;;;;;;;;;;;;;;;30.33;65.56;101056.19;5079644;27;70764;-34
2021/12/07 12:00:54;;;;;;;;;;;;;;;30.31;66.03;101070.97;5046131;28;66770;-33
2021/12/07 12:03:25;;;;;;;;;;;;;;;30.31;65.93;101070.97;5080776;27;70463;-33
2021/12/07 12:05:56;;;;;;;;;;;;;;;30.25;65.95;101064.53;5080230;27;66266;-33
2021/12/07 12:08:31;;;;;;;;;;;;;;;30.26;66.06;101072.47;5079353;27;69215;-36
2021/12/07 12:11:15;;;;;;;;;;;;;;;30.25;65.63;101078.06;5080673;27;66618;-34
2021/12/07 12:14:05;;;;;;;;;;;;;;;30.25;66.09;101078.91;5092501;27;69614;-35
2021/12/07 12:16:47;;;;;;;;;;;;;;;30.24;65.66;101081.81;5096327;27;66745;-34
2021/12/07 12:19:37;;;;;;;;;;;;;;;30.21;65.72;101082.22;5081137;27;69886;-35
2021/12/07 12:22:07;;;;;;;;;;;;;;;30.20;65.67;101086.81;5079429;27;66268;-33
2021/12/07 12:24:54;;;;;;;;;;;;;;;30.18;66.14;101091.59;5081323;27;70499;-33
2021/12/07 12:27:30;;;;;;;;;;;;;;;30.16;66.24;101101.78;5082429;27;66264;-34
2021/12/07 12:30:16;;;;;;;;;;;;;;;30.14;65.74;101101.16;5082348;27;69822;-32
2021/12/07 12:32:59;;;;;;;;;;;;;;;30.14;66.06;101103.03;5082198;27;66015;-34
2021/12/07 12:35:32;;;;;;;;;;;;;;;30.13;65.76;101109.50;5080739;27;69318;-34
2021/12/07 12:38:02;;;;;;;;;;;;;;;30.12;66.63;101108.66;5084744;27;66986;-34
2021/12/07 12:40:33;;;;;;;;;;;;;;;30.10;64.96;101108.03;5087834;27;69848;-34
2021/12/07 12:43:03;;;;;;;;;;;;;;;30.05;64.13;101110.53;5083355;27;67071;-35
2021/12/07 12:45:37;;;;;;;;;;;;;;;30.03;64.05;101118.03;5081030;27;69829;-35
2021/12/07 12:48:10;;;;;;;;;;;;;;;30.01;63.66;101114.72;5076599;27;66721;-35
2021/12/07 12:50:43;;;;;;;;;;;;;;;29.98;63.37;101115.13;5073785;27;69251;-36
2021/12/07 12:53:21;;;;;;;;;;;;;;;29.96;63.80;101117.22;5080077;27;66416;-34
2021/12/07 12:55:56;;;;;;;;;;;;;;;29.94;63.17;101119.28;5079577;27;70274;-35
2021/12/07 12:58:37;;;;;;;;;;;;;;;29.93;63.02;101117.63;5079039;27;66300;-34
2021/12/07 13:01:27;;;;;;;;;;;;;;;29.92;63.17;101122.22;5079892;27;70667;-35
2021/12/07 13:04:02;;;;;;;;;;;;;;;29.92;62.50;101121.34;5079523;27;65329;-35
2021/12/07 13:06:37;;;;;;;;;;;;;;;29.90;62.38;101132.41;5083412;27;69945;-35
2021/12/07 13:09:19;;;;;;;;;;;;;;;29.91;63.12;101146.75;5068569;27;65662;-37
2021/12/07 13:12:03;;;;;;;;;;;;;;;29.91;63.73;101146.75;5082644;27;69483;-35
2021/12/07 13:14:38;;;;;;;;;;;;;;;29.90;63.48;101159.44;5071772;27;65668;-35
2021/12/07 13:17:16;;;;;;;;;;;;;;;29.90;63.37;101166.72;5065313;28;69993;-35
2021/12/07 13:20:10;;;;;;;;;;;;;;;29.89;63.61;101159.63;5090944;27;66536;-35
2021/12/07 13:23:27;;;;;;;;;;;;;;;;;;;;;
2021/12/07 13:26:03;;;;;;;;;;;;;;;29.90;64.79;101162.16;5066205;27;66492;-35
2021/12/07 13:28:35;;;;;;;;;;;;;;;29.93;66.23;101166.31;5081424;27;69243;-34
2021/12/07 13:31:17;;;;;;;;;;;;;;;29.94;67.51;101163.38;5082885;27;65517;-35
2021/12/07 13:34:22;;;;;;;;;;;;;;;29.94;69.23;101168.78;5080798;27;69869;-34
2021/12/07 13:37:20;;;;;;;;;;;;;;;29.84;68.92;101157.56;5079690;27;65512;-34
2021/12/07 13:39:56;;;;;;;;;;;;;;;29.60;65.12;101164.34;5080340;27;70056;-34
2021/12/07 13:42:55;;;;;;;;;;;;;;;29.29;63.10;101162.19;5080990;27;66662;-34
2021/12/07 13:45:30;;;;;;;;;;;;;;;29.06;61.09;101160.66;5080235;27;69814;-35
2021/12/07 13:48:22;;;;;;;;;;;;;;;28.85;59.07;101155.34;5080671;27;65592;-33
2021/12/07 13:50:58;;;;;;;;;;;;;;;28.60;58.41;101138.78;5079604;27;69149;-34
2021/12/07 13:53:37;;;;;;;;;;;;;;;28.45;56.81;101147.00;5080413;27;66601;-34
2021/12/07 13:56:14;;;;;;;;;;;;;;;28.34;56.53;101153.75;5080689;27;70112;-35
2021/12/07 13:58:59;;;;;;;;;;;;;;;28.18;56.38;101148.66;5078770;27;66460;-34
2021/12/07 14:04:27;;;;;;;;;;;;;;;28.12;57.51;101150.25;5079263;27;65334;-35
2021/12/07 14:07:05;;;;;;;;;;;;;;;28.06;58.23;101148.34;5076291;27;71397;-33
2021/12/07 14:09:39;;;;;;;;;;;;;;;28.01;58.40;101146.22;5077371;27;65561;-32
2021/12/07 14:12:10;;;;;;;;;;;;;;;27.98;58.77;101152.00;5079513;27;70411;-33
2021/12/07 14:14:47;;;;;;;;;;;;;;;27.89;58.53;101149.63;5079190;27;65595;-34
2021/12/07 14:17:41;;;;;;;;;;;;;;;27.81;58.03;101151.44;5079375;27;70771;-33
2021/12/07 14:21:01;;;;;;;;;;;;;;;27.72;57.72;101146.34;5078586;27;65971;-33
2021/12/07 14:23:39;;;;;;;;;;;;;;;27.69;58.04;101150.25;5082775;27;70576;-34
2021/12/07 14:26:22;;;;;;;;;;;;;;;27.60;56.84;101144.16;5077452;27;66586;-32
2021/12/07 14:28:56;;;;;;;;;;;;;;;27.52;56.79;101144.28;5077866;27;70404;-34
2021/12/07 14:31:28;;;;;;;;;;;;;;;27.49;57.05;101149.22;5078482;27;65512;-34
2021/12/07 14:34:14;;;;;;;;;;;;;;;27.43;56.29;101131.94;5077976;27;70313;-33
2021/12/07 14:36:48;;;;;;;;;;;;;;;27.37;56.49;101146.19;5077140;27;67023;-34
2021/12/07 14:39:38;;;;;;;;;;;;;;;27.30;56.10;101142.56;5077461;27;70356;-34
2021/12/07 14:42:19;;;;;;;;;;;;;;;27.24;56.14;101137.97;5077690;27;66539;-34
2021/12/07 14:45:03;;;;;;;;;;;;;;;27.23;55.52;101147.06;5077813;27;69851;-34
2021/12/07 14:47:49;;;;;;;;;;;;;;;27.12;55.51;101143.78;5090675;27;66412;-33
2021/12/07 14:54:26;;;;;;;;;;;;;;;27.04;55.07;101148.47;5077223;28;66373;-34
2021/12/07 14:57:05;;;;;;;;;;;;;;;27.17;54.43;101146.78;5077181;27;70632;-34
2021/12/07 14:59:40;;;;;;;;;;;;;;;27.27;54.54;101149.19;5079765;27;65656;-34
2021/12/07 15:02:11;;;;;;;;;;;;;;;27.29;54.07;101155.22;5080996;27;69154;-36